createdAt,value
2017-01-17T00:00:39.371Z,78.83
2017-01-17T00:01:53.154Z,78.74
2017-01-17T00:03:06.663Z,79.02
2017-01-17T00:04:20.127Z,78.45
2017-01-17T00:05:33.602Z,78.36
2017-01-17T00:06:48.427Z,78.55
2017-01-17T00:08:02.345Z,78.45
2017-01-17T00:09:15.776Z,78.17
2017-01-17T00:10:31.402Z,78.27
2017-01-17T00:11:44.899Z,78.17
2017-01-17T00:12:58.451Z,78.74
2017-01-17T00:14:12.161Z,78.55
2017-01-17T00:15:25.648Z,78.74
2017-01-17T00:16:39.075Z,78.55
2017-01-17T00:17:52.560Z,78.45
2017-01-17T00:19:06.045Z,78.45
2017-01-17T00:20:19.778Z,78.64
2017-01-17T00:21:33.175Z,78.45
2017-01-17T00:22:46.620Z,78.45
2017-01-17T00:24:00.830Z,78.64
2017-01-17T00:25:14.251Z,78.27
2017-01-17T00:26:28.203Z,78.45
2017-01-17T00:27:41.659Z,78.45
2017-01-17T00:28:55.606Z,78.27
2017-01-17T00:30:09.058Z,78.64
2017-01-17T00:31:22.486Z,77.98
2017-01-17T00:32:36.272Z,78.36
2017-01-17T00:33:49.759Z,77.98
2017-01-17T00:35:03.890Z,78.27
2017-01-17T00:36:17.341Z,77.61
2017-01-17T00:37:30.803Z,77.98
2017-01-17T00:38:44.577Z,78.08
2017-01-17T00:39:58.088Z,77.8
2017-01-17T00:41:11.553Z,77.51
2017-01-17T00:42:25.012Z,77.61
2017-01-17T00:43:38.436Z,77.45
2017-01-17T00:45:21.923Z,77.45
2017-01-17T00:46:35.412Z,77.08
2017-01-17T00:47:48.821Z,77.55
2017-01-17T00:49:02.232Z,77.26
2017-01-17T00:50:16.420Z,76.79
2017-01-17T00:51:29.940Z,75.85
2017-01-17T00:52:43.357Z,75.47
2017-01-17T00:53:56.802Z,76.14
2017-01-17T00:55:10.299Z,75.85
2017-01-17T00:56:24.149Z,75.57
2017-01-17T00:57:37.786Z,75.57
2017-01-17T00:58:51.251Z,75.76
2017-01-17T01:00:04.679Z,75.76
2017-01-17T01:01:18.081Z,75.47
2017-01-17T01:02:32.347Z,76.14
2017-01-17T01:03:45.774Z,75.66
2017-01-17T01:04:59.207Z,75.85
2017-01-17T01:06:12.668Z,75.85
2017-01-17T01:07:26.235Z,75.57
2017-01-17T01:08:40.365Z,75.57
2017-01-17T01:09:53.791Z,75.47
2017-01-17T01:11:13.488Z,75.47
2017-01-17T01:12:27.035Z,76.14
2017-01-17T01:13:40.526Z,75.95
2017-01-17T01:14:54.269Z,75.76
2017-01-17T01:16:07.757Z,75.76
2017-01-17T01:17:21.275Z,76.04
2017-01-17T01:18:34.707Z,75.95
2017-01-17T01:19:48.118Z,75.95
2017-01-17T01:21:01.858Z,75.57
2017-01-17T01:22:15.350Z,75.47
2017-01-17T01:23:28.837Z,75.57
2017-01-17T01:24:42.739Z,75.66
2017-01-17T01:25:56.149Z,75.76
2017-01-17T01:27:12.106Z,75.66
2017-01-17T01:28:25.591Z,74.9
2017-01-17T01:29:39.428Z,74.9
2017-01-17T01:30:52.875Z,75.28
2017-01-17T01:32:06.267Z,75.28
2017-01-17T01:33:20.497Z,74.9
2017-01-17T01:34:33.943Z,74.81
2017-01-17T01:35:47.418Z,75.28
2017-01-17T01:37:00.852Z,75.47
2017-01-17T01:38:14.310Z,75.28
2017-01-17T01:39:28.084Z,75.47
2017-01-17T01:40:41.526Z,75.09
2017-01-17T01:41:54.965Z,75.09
2017-01-17T01:43:08.814Z,75
2017-01-17T01:44:22.346Z,75
2017-01-17T01:45:36.112Z,74.24
2017-01-17T01:46:49.537Z,74.53
2017-01-17T01:48:03.101Z,74.24
2017-01-17T01:49:17.376Z,74.53
2017-01-17T01:50:31.002Z,74.43
2017-01-17T01:51:44.704Z,74.71
2017-01-17T01:52:58.132Z,74.43
2017-01-17T01:54:11.577Z,74.34
2017-01-17T01:55:25.081Z,74.62
2017-01-17T01:56:38.656Z,74.9
2017-01-17T01:57:52.381Z,74.9
2017-01-17T01:59:05.844Z,74.62
2017-01-17T02:00:19.325Z,74.71
2017-01-17T02:01:32.782Z,74.71
2017-01-17T02:02:46.261Z,75
2017-01-17T02:03:59.999Z,75.09
2017-01-17T02:05:13.555Z,75.19
2017-01-17T02:06:27.013Z,75.09
2017-01-17T02:07:40.409Z,75.57
2017-01-17T02:08:53.827Z,75.57
2017-01-17T02:10:07.619Z,75.76
2017-01-17T02:11:21.162Z,75.57
2017-01-17T02:12:34.585Z,76.23
2017-01-17T02:13:48.028Z,75.95
2017-01-17T02:15:01.528Z,75.85
2017-01-17T02:16:15.389Z,75.95
2017-01-17T02:17:28.843Z,75.66
2017-01-17T02:18:42.269Z,75.85
2017-01-17T02:19:55.717Z,75.28
2017-01-17T02:21:09.282Z,75.09
2017-01-17T02:22:23.020Z,75.28
2017-01-17T02:23:36.507Z,75.19
2017-01-17T02:24:49.997Z,75.57
2017-01-17T02:26:03.498Z,75.76
2017-01-17T02:27:16.989Z,75.19
2017-01-17T02:28:30.682Z,75
2017-01-17T02:29:44.081Z,75.28
2017-01-17T02:30:57.521Z,75.28
2017-01-17T02:32:12.241Z,74.71
2017-01-17T02:33:25.708Z,74.9
2017-01-17T02:34:39.416Z,74.9
2017-01-17T02:35:52.876Z,74.15
2017-01-17T02:37:06.376Z,74.53
2017-01-17T02:38:19.797Z,74.05
2017-01-17T02:39:33.201Z,74.15
2017-01-17T02:40:46.894Z,73.86
2017-01-17T02:42:00.373Z,74.19
2017-01-17T02:43:16.005Z,73.58
2017-01-17T02:44:29.435Z,73.39
2017-01-17T02:45:42.880Z,73.39
2017-01-17T02:46:56.618Z,73.96
2017-01-17T02:48:10.571Z,73.96
2017-01-17T02:49:24.414Z,73.58
2017-01-17T02:50:37.898Z,73.39
2017-01-17T02:51:51.353Z,73.39
2017-01-17T02:53:05.172Z,73.39
2017-01-17T02:54:18.587Z,73.39
2017-01-17T02:55:32.194Z,73.02
2017-01-17T02:56:46.078Z,72.55
2017-01-17T02:57:59.560Z,73.3
2017-01-17T02:59:32.509Z,73.58
2017-01-17T03:00:45.933Z,73.58
2017-01-17T03:01:59.363Z,73.3
2017-01-17T03:03:12.946Z,72.39
2017-01-17T03:04:26.680Z,72.39
2017-01-17T03:05:40.092Z,72.39
2017-01-17T03:06:53.564Z,72.2
2017-01-17T03:08:07.002Z,72.3
2017-01-17T03:09:20.528Z,72.3
2017-01-17T03:10:34.238Z,71.83
2017-01-17T03:11:47.629Z,71.73
2017-01-17T03:13:01.072Z,71.54
2017-01-17T03:14:14.586Z,71.73
2017-01-17T03:15:28.007Z,71.92
2017-01-17T03:16:41.761Z,71.64
2017-01-17T03:17:55.211Z,71.73
2017-01-17T03:19:08.754Z,71.64
2017-01-17T03:20:22.207Z,71.45
2017-01-17T03:21:35.633Z,71.64
2017-01-17T03:22:49.375Z,71.64
2017-01-17T03:24:03.180Z,70.4
2017-01-17T03:25:16.678Z,70.21
2017-01-17T03:26:30.123Z,70.31
2017-01-17T03:27:43.537Z,70.12
2017-01-17T03:28:57.250Z,70.31
2017-01-17T03:30:11.958Z,70.12
2017-01-17T03:31:25.367Z,70.21
2017-01-17T03:32:39.403Z,70.31
2017-01-17T03:33:52.830Z,70.4
2017-01-17T03:35:06.728Z,70.59
2017-01-17T03:36:20.576Z,70.88
2017-01-17T03:37:40.259Z,69.84
2017-01-17T03:38:54.074Z,69.56
2017-01-17T03:40:07.571Z,69.84
2017-01-17T03:41:21.331Z,69.65
2017-01-17T03:42:34.772Z,69.65
2017-01-17T03:43:48.173Z,69.65
2017-01-17T03:45:01.999Z,68.99
2017-01-17T03:46:15.886Z,68.9
2017-01-17T03:47:29.555Z,69.37
2017-01-17T03:48:42.981Z,69.27
2017-01-17T03:49:56.392Z,68.9
2017-01-17T03:51:09.946Z,68.99
2017-01-17T03:52:23.414Z,67.85
2017-01-17T03:53:37.093Z,68.04
2017-01-17T03:54:50.578Z,68.52
2017-01-17T03:56:05.319Z,68.14
2017-01-17T03:57:18.766Z,68.04
2017-01-17T03:58:32.297Z,67.47
2017-01-17T03:59:48.203Z,67.95
2017-01-17T04:01:01.797Z,68.04
2017-01-17T04:02:15.213Z,67.95
2017-01-17T04:03:29.096Z,67.85
2017-01-17T04:04:42.518Z,67.85
2017-01-17T04:05:56.251Z,68.04
2017-01-17T04:07:09.805Z,67.85
2017-01-17T04:08:23.250Z,67.85
2017-01-17T04:09:37.540Z,67.76
2017-01-17T04:10:50.970Z,67.38
2017-01-17T04:12:04.781Z,67.47
2017-01-17T04:13:18.248Z,67.29
2017-01-17T04:14:31.672Z,67.47
2017-01-17T04:15:45.127Z,67.57
2017-01-17T04:16:59.001Z,67.38
2017-01-17T04:18:12.995Z,67.38
2017-01-17T04:19:26.391Z,67.38
2017-01-17T04:20:39.847Z,67.1
2017-01-17T04:21:53.249Z,66.63
2017-01-17T04:23:06.816Z,66.82
2017-01-17T04:24:20.631Z,66.63
2017-01-17T04:25:34.133Z,66.63
2017-01-17T04:26:47.546Z,66.63
2017-01-17T04:28:01.083Z,66.53
2017-01-17T04:29:14.987Z,66.63
2017-01-17T04:30:28.695Z,66.91
2017-01-17T04:31:42.271Z,66.63
2017-01-17T04:33:02.158Z,66.63
2017-01-17T04:34:16.017Z,66.63
2017-01-17T04:35:29.421Z,66.53
2017-01-17T04:36:49.451Z,66.25
2017-01-17T04:38:03.024Z,66.44
2017-01-17T04:39:16.585Z,66.44
2017-01-17T04:40:29.999Z,65.78
2017-01-17T04:41:43.435Z,65.87
2017-01-17T04:42:57.140Z,65.68
2017-01-17T04:44:10.645Z,65.78
2017-01-17T04:45:24.097Z,65.87
2017-01-17T04:46:37.526Z,65.49
2017-01-17T04:47:50.965Z,65.49
2017-01-17T04:49:05.008Z,65.49
2017-01-17T04:50:18.601Z,65.21
2017-01-17T04:51:32.024Z,65.21
2017-01-17T04:52:45.487Z,65.4
2017-01-17T04:53:59.395Z,65.11
2017-01-17T04:55:13.197Z,65.3
2017-01-17T04:56:26.635Z,65.21
2017-01-17T04:57:40.139Z,65.97
2017-01-17T04:58:53.547Z,65.97
2017-01-17T05:00:08.261Z,65.78
2017-01-17T05:01:21.971Z,65.49
2017-01-17T05:02:35.805Z,65.4
2017-01-17T05:03:49.267Z,65.97
2017-01-17T05:05:02.847Z,65.68
2017-01-17T05:06:16.695Z,65.59
2017-01-17T05:07:30.410Z,65.87
2017-01-17T05:08:43.862Z,66.06
2017-01-17T05:09:57.402Z,66.06
2017-01-17T05:11:12.085Z,65.4
2017-01-17T05:12:25.500Z,64.83
2017-01-17T05:13:39.287Z,65.49
2017-01-17T05:14:52.772Z,65.21
2017-01-17T05:16:09.717Z,65.49
2017-01-17T05:17:23.168Z,65.59
2017-01-17T05:18:36.618Z,65.11
2017-01-17T05:19:50.325Z,65.21
2017-01-17T05:21:03.884Z,65.68
2017-01-17T05:22:17.893Z,65.21
2017-01-17T05:23:31.340Z,65.97
2017-01-17T05:24:44.759Z,65.68
2017-01-17T05:25:58.887Z,67.95
2017-01-17T05:27:12.575Z,74.85
2017-01-17T05:28:26.030Z,67.7
2017-01-17T05:29:39.478Z,67.51
2017-01-17T05:30:52.896Z,66.03
2017-01-17T05:32:07.130Z,64.61
2017-01-17T05:33:20.585Z,63.2
2017-01-17T05:34:33.986Z,62.31
2017-01-17T05:35:47.421Z,62.31
2017-01-17T05:37:00.939Z,63.07
2017-01-17T05:38:14.663Z,63.26
2017-01-17T05:39:28.103Z,63.73
2017-01-17T05:40:41.533Z,63.54
2017-01-17T05:41:55.220Z,63.64
2017-01-17T05:43:09.102Z,63.64
2017-01-17T05:44:22.810Z,63.64
2017-01-17T05:45:36.671Z,63.92
2017-01-17T05:46:50.101Z,63.98
2017-01-17T05:48:04.839Z,64.58
2017-01-17T05:49:18.273Z,64.64
2017-01-17T05:50:32.004Z,64.73
2017-01-17T05:51:46.263Z,64.45
2017-01-17T05:53:00.544Z,64.73
2017-01-17T05:54:14.411Z,64.54
2017-01-17T05:55:28.224Z,64.83
2017-01-17T05:56:42.415Z,64.73
2017-01-17T05:57:55.979Z,65.4
2017-01-17T05:59:09.576Z,64.83
2017-01-17T06:00:23.384Z,64.92
2017-01-17T06:01:36.906Z,64.73
2017-01-17T06:02:51.025Z,65.24
2017-01-17T06:04:04.989Z,64.83
2017-01-17T06:05:18.532Z,64.58
2017-01-17T06:06:31.968Z,63.89
2017-01-17T06:07:46.186Z,64.54
2017-01-17T06:09:01.200Z,64.92
2017-01-17T06:10:14.723Z,65.21
2017-01-17T06:11:28.271Z,65.3
2017-01-17T06:12:41.756Z,65.4
2017-01-17T06:13:55.307Z,65.4
2017-01-17T06:15:09.112Z,65.21
2017-01-17T06:16:22.572Z,65.4
2017-01-17T06:17:36.068Z,65.21
2017-01-17T06:18:49.699Z,65.59
2017-01-17T06:20:03.340Z,65.43
2017-01-17T06:21:18.150Z,65.21
2017-01-17T06:22:31.638Z,65.21
2017-01-17T06:23:45.076Z,64.67
2017-01-17T06:24:58.698Z,63.89
2017-01-17T06:26:12.319Z,64.36
2017-01-17T06:27:26.110Z,64.45
2017-01-17T06:28:39.584Z,64.26
2017-01-17T06:29:53.220Z,64.07
2017-01-17T06:31:06.709Z,64.07
2017-01-17T06:32:22.367Z,63.7
2017-01-17T06:33:36.260Z,63.89
2017-01-17T06:34:49.810Z,64.17
2017-01-17T06:36:03.239Z,63.79
2017-01-17T06:37:16.685Z,63.35
2017-01-17T06:38:30.192Z,63.79
2017-01-17T06:39:43.944Z,63.7
2017-01-17T06:40:58.724Z,63.89
2017-01-17T06:42:12.276Z,63.32
2017-01-17T06:43:25.829Z,63.23
2017-01-17T06:44:39.390Z,62.47
2017-01-17T06:45:55.005Z,62.21
2017-01-17T06:47:08.612Z,62.66
2017-01-17T06:48:22.131Z,63.04
2017-01-17T06:49:35.551Z,62.94
2017-01-17T06:50:49.043Z,62.56
2017-01-17T06:52:03.595Z,62.37
2017-01-17T06:53:17.155Z,62.66
2017-01-17T06:54:30.592Z,62.28
2017-01-17T06:55:44.008Z,62.47
2017-01-17T06:56:57.562Z,61.9
2017-01-17T06:58:11.280Z,62.37
2017-01-17T06:59:25.963Z,62.31
2017-01-17T07:00:39.805Z,61.99
2017-01-17T07:01:53.366Z,61.52
2017-01-17T07:03:06.768Z,61.8
2017-01-17T07:04:20.513Z,61.8
2017-01-17T07:05:33.950Z,62.21
2017-01-17T07:06:47.424Z,62.12
2017-01-17T07:08:01.333Z,61.93
2017-01-17T07:09:14.813Z,62.18
2017-01-17T07:10:33.545Z,62.09
2017-01-17T07:11:47.391Z,62.18
2017-01-17T07:13:00.931Z,61.8
2017-01-17T07:14:14.403Z,61.9
2017-01-17T07:15:27.844Z,61.74
2017-01-17T07:16:42.008Z,61.83
2017-01-17T07:17:55.554Z,61.9
2017-01-17T07:19:09.028Z,62.09
2017-01-17T07:20:22.883Z,62.18
2017-01-17T07:21:36.334Z,62.47
2017-01-17T07:22:50.412Z,62.12
2017-01-17T07:24:03.889Z,62.12
2017-01-17T07:25:17.353Z,63.07
2017-01-17T07:26:30.836Z,62.88
2017-01-17T07:27:44.326Z,62.66
2017-01-17T07:28:58.115Z,62.37
2017-01-17T07:30:11.581Z,63.16
2017-01-17T07:31:25.041Z,63.42
2017-01-17T07:32:38.887Z,63.32
2017-01-17T07:33:52.908Z,63.51
2017-01-17T07:35:07.141Z,63.23
2017-01-17T07:36:21.182Z,63.23
2017-01-17T07:37:34.753Z,63.6
2017-01-17T07:38:48.697Z,63.51
2017-01-17T07:40:02.144Z,63.7
2017-01-17T07:41:16.278Z,63.79
2017-01-17T07:42:29.763Z,63.73
2017-01-17T07:43:43.354Z,63.92
2017-01-17T07:44:56.841Z,64.2
2017-01-17T07:46:10.318Z,64.2
2017-01-17T07:47:34.373Z,63.64
2017-01-17T07:48:50.638Z,63.54
2017-01-17T07:50:04.265Z,63.13
2017-01-17T07:51:18.213Z,63.64
2017-01-17T07:52:32.421Z,63.82
2017-01-17T07:53:46.360Z,63.7
2017-01-17T07:54:59.930Z,63.92
2017-01-17T07:56:13.400Z,63.92
2017-01-17T07:57:39.637Z,63.82
2017-01-17T07:58:53.470Z,63.54
2017-01-17T08:00:06.904Z,63.64
2017-01-17T08:01:20.747Z,64.01
2017-01-17T08:02:34.225Z,64.01
2017-01-17T08:03:47.764Z,64.11
2017-01-17T08:05:01.683Z,63.45
2017-01-17T08:06:15.106Z,63.73
2017-01-17T08:07:28.588Z,63.92
2017-01-17T08:08:42.093Z,63.73
2017-01-17T08:09:55.762Z,63.35
2017-01-17T08:11:09.526Z,63.45
2017-01-17T08:12:23.115Z,63.64
2017-01-17T08:13:37.311Z,62.97
2017-01-17T08:14:51.553Z,62.69
2017-01-17T08:16:05.473Z,63.07
2017-01-17T08:17:20.091Z,62.78
2017-01-17T08:18:34.254Z,63.16
2017-01-17T08:19:50.655Z,62.59
2017-01-17T08:21:04.347Z,62.12
2017-01-17T08:22:18.844Z,61.83
2017-01-17T08:23:32.613Z,61.83
2017-01-17T08:24:46.139Z,61.74
2017-01-17T08:25:59.739Z,61.83
2017-01-17T08:27:13.617Z,61.74
2017-01-17T08:28:27.756Z,62.21
2017-01-17T08:29:41.553Z,60.89
2017-01-17T08:30:55.180Z,60.14
2017-01-17T08:32:08.635Z,60.7
2017-01-17T08:33:22.131Z,60.61
2017-01-17T08:34:35.593Z,61.08
2017-01-17T08:35:49.462Z,60.23
2017-01-17T08:37:02.904Z,59.57
2017-01-17T08:38:16.438Z,59.85
2017-01-17T08:39:30.024Z,59.66
2017-01-17T08:40:43.518Z,59.95
2017-01-17T08:41:58.561Z,59.28
2017-01-17T08:43:12.424Z,59
2017-01-17T08:44:25.929Z,58.44
2017-01-17T08:45:39.453Z,58.72
2017-01-17T08:46:52.991Z,59.38
2017-01-17T08:48:06.829Z,59.47
2017-01-17T08:49:20.298Z,59.47
2017-01-17T08:50:33.834Z,59.47
2017-01-17T08:51:47.464Z,59.09
2017-01-17T08:53:01.129Z,58.15
2017-01-17T08:54:15.247Z,59
2017-01-17T08:55:29.864Z,58.53
2017-01-17T08:56:43.527Z,58.34
2017-01-17T08:57:56.940Z,57.96
2017-01-17T08:59:10.406Z,57.39
2017-01-17T09:00:24.151Z,57.77
2017-01-17T09:01:37.575Z,57.87
2017-01-17T09:02:52.240Z,56.26
2017-01-17T09:04:05.718Z,56.26
2017-01-17T09:05:21.375Z,56.92
2017-01-17T09:06:36.959Z,56.63
2017-01-17T09:07:53.167Z,55.98
2017-01-17T09:09:11.996Z,55.31
2017-01-17T09:10:31.671Z,55.98
2017-01-17T09:11:53.202Z,55.22
2017-01-17T09:13:12.528Z,54.74
2017-01-17T09:14:29.740Z,54.27
2017-01-17T09:15:44.073Z,53.89
2017-01-17T09:17:00.562Z,53.26
2017-01-17T09:18:15.275Z,53.83
2017-01-17T09:19:29.399Z,53.42
2017-01-17T09:20:43.238Z,52.41
2017-01-17T09:21:59.710Z,52.5
2017-01-17T09:23:13.952Z,52.31
2017-01-17T09:24:28.096Z,52.69
2017-01-17T09:25:42.676Z,52.41
2017-01-17T09:27:00.413Z,52.41
2017-01-17T09:28:14.311Z,52.31
2017-01-17T09:29:29.169Z,52.22
2017-01-17T09:30:43.331Z,51.84
2017-01-17T09:31:58.930Z,51.75
2017-01-17T09:33:14.644Z,51.46
2017-01-17T09:34:34.571Z,51.06
2017-01-17T09:35:52.128Z,51.34
2017-01-17T09:37:06.764Z,51.25
2017-01-17T09:38:24.852Z,51.43
2017-01-17T09:39:39.453Z,51.53
2017-01-17T09:40:53.619Z,51.34
2017-01-17T09:42:10.058Z,51.62
2017-01-17T09:43:24.632Z,51.62
2017-01-17T09:44:40.645Z,51.91
2017-01-17T09:45:54.805Z,51.25
2017-01-17T09:47:08.639Z,50.78
2017-01-17T09:48:23.475Z,51.25
2017-01-17T09:49:37.468Z,51.06
2017-01-17T09:50:51.352Z,51.15
2017-01-17T09:52:04.998Z,51.34
2017-01-17T09:53:19.749Z,51.06
2017-01-17T09:54:34.092Z,51.34
2017-01-17T09:55:49.738Z,51.06
2017-01-17T09:57:03.558Z,51.06
2017-01-17T09:58:18.775Z,50.96
2017-01-17T09:59:33.609Z,51.06
2017-01-17T10:00:47.082Z,50.87
2017-01-17T10:02:00.536Z,50.96
2017-01-17T10:03:14.835Z,50.59
2017-01-17T10:04:28.682Z,50.52
2017-01-17T10:05:42.125Z,50.4
2017-01-17T10:06:55.554Z,50.9
2017-01-17T10:08:08.988Z,50.78
2017-01-17T10:09:22.750Z,50.33
2017-01-17T10:10:36.185Z,50.52
2017-01-17T10:11:50.078Z,50.61
2017-01-17T10:13:03.539Z,49.85
2017-01-17T10:14:17.532Z,50.33
2017-01-17T10:15:32.345Z,50.52
2017-01-17T10:16:46.966Z,50.04
2017-01-17T10:18:00.421Z,49.57
2017-01-17T10:19:15.122Z,49.76
2017-01-17T10:20:28.800Z,49.1
2017-01-17T10:21:42.589Z,49.01
2017-01-17T10:22:59.019Z,48.82
2017-01-17T10:24:14.980Z,49.1
2017-01-17T10:25:28.545Z,49.01
2017-01-17T10:26:42.337Z,49.1
2017-01-17T10:27:56.542Z,49.01
2017-01-17T10:29:10.074Z,49.01
2017-01-17T10:30:23.969Z,49.29
2017-01-17T10:31:37.458Z,49.19
2017-01-17T10:32:52.680Z,47.99
2017-01-17T10:34:06.852Z,48.36
2017-01-17T10:35:21.031Z,47.96
2017-01-17T10:36:34.874Z,47.68
2017-01-17T10:37:48.381Z,48.34
2017-01-17T10:39:01.980Z,48.15
2017-01-17T10:40:17.045Z,49.19
2017-01-17T10:41:30.894Z,49.76
2017-01-17T10:42:44.386Z,50.42
2017-01-17T10:43:57.824Z,51.56
2017-01-17T10:45:11.355Z,51.65
2017-01-17T10:46:25.144Z,52.41
2017-01-17T10:47:39.029Z,52.79
2017-01-17T10:48:52.526Z,53.26
2017-01-17T10:50:05.973Z,53.55
2017-01-17T10:51:20.006Z,53.55
2017-01-17T10:52:34.193Z,53.64
2017-01-17T10:53:47.620Z,53.45
2017-01-17T10:55:01.061Z,53.92
2017-01-17T10:56:14.610Z,54.11
2017-01-17T10:57:28.085Z,54.11
2017-01-17T10:58:41.863Z,53.83
2017-01-17T10:59:55.376Z,53.36
2017-01-17T11:01:08.997Z,53.64
2017-01-17T11:02:22.481Z,54.3
2017-01-17T11:03:35.949Z,54.58
2017-01-17T11:04:49.755Z,54.68
2017-01-17T11:06:03.349Z,54.77
2017-01-17T11:07:16.872Z,54.49
2017-01-17T11:08:30.301Z,54.68
2017-01-17T11:09:44.152Z,54.39
2017-01-17T11:10:58.235Z,54.68
2017-01-17T11:12:12.963Z,54.77
2017-01-17T11:13:26.831Z,54.3
2017-01-17T11:14:40.319Z,54.21
2017-01-17T11:15:53.775Z,54.21
2017-01-17T11:17:07.500Z,54.11
2017-01-17T11:18:21.441Z,53.92
2017-01-17T11:19:34.928Z,53.45
2017-01-17T11:20:48.410Z,53.45
2017-01-17T11:22:01.825Z,53.36
2017-01-17T11:23:16.779Z,53.74
2017-01-17T11:24:30.993Z,54.39
2017-01-17T11:25:44.579Z,54.39
2017-01-17T11:26:58.165Z,53.83
2017-01-17T11:28:12.831Z,53.45
2017-01-17T11:29:26.986Z,53.26
2017-01-17T11:30:40.602Z,53.36
2017-01-17T11:31:54.085Z,53.64
2017-01-17T11:33:07.549Z,53.83
2017-01-17T11:34:21.024Z,54.3
2017-01-17T11:35:35.135Z,54.39
2017-01-17T11:36:48.573Z,54.58
2017-01-17T11:38:02.434Z,54.96
2017-01-17T11:39:18.068Z,55.15
2017-01-17T11:40:31.554Z,54.68
2017-01-17T11:41:45.253Z,53.74
2017-01-17T11:42:59.096Z,53.92
2017-01-17T11:44:12.526Z,54.11
2017-01-17T11:45:26.006Z,54.21
2017-01-17T11:46:39.500Z,54.58
2017-01-17T11:47:53.249Z,54.96
2017-01-17T11:49:06.718Z,54.96
2017-01-17T11:50:20.330Z,54.77
2017-01-17T11:51:34.993Z,54.68
2017-01-17T11:52:48.469Z,54.58
2017-01-17T11:54:02.196Z,54.58
2017-01-17T11:55:15.646Z,54.3
2017-01-17T11:56:29.581Z,54.68
2017-01-17T11:57:43.071Z,55.34
2017-01-17T11:58:56.544Z,55.25
2017-01-17T12:00:10.277Z,54.87
2017-01-17T12:01:25.390Z,54.3
2017-01-17T12:02:38.859Z,54.21
2017-01-17T12:03:52.377Z,54.21
2017-01-17T12:05:06.687Z,54.3
2017-01-17T12:06:20.438Z,54.68
2017-01-17T12:07:33.896Z,55.44
2017-01-17T12:08:47.382Z,55.25
2017-01-17T12:10:00.905Z,55.91
2017-01-17T12:11:14.327Z,56.1
2017-01-17T12:12:28.096Z,55.15
2017-01-17T12:13:41.567Z,54.71
2017-01-17T12:14:55.029Z,54.42
2017-01-17T12:16:08.535Z,54.87
2017-01-17T12:17:22.013Z,55.25
2017-01-17T12:18:36.178Z,55.25
2017-01-17T12:19:49.621Z,55.25
2017-01-17T12:21:03.046Z,54.58
2017-01-17T12:22:16.850Z,54.21
2017-01-17T12:23:30.303Z,54.39
2017-01-17T12:24:44.458Z,54.58
2017-01-17T12:25:57.904Z,54.58
2017-01-17T12:27:11.363Z,54.02
2017-01-17T12:28:24.890Z,53.57
2017-01-17T12:29:38.555Z,53.45
2017-01-17T12:30:52.325Z,53.36
2017-01-17T12:32:06.215Z,53.26
2017-01-17T12:33:19.675Z,53.36
2017-01-17T12:34:33.176Z,52.69
2017-01-17T12:35:46.757Z,52.06
2017-01-17T12:37:00.500Z,51.96
2017-01-17T12:38:13.940Z,51.01
2017-01-17T12:39:27.446Z,51.11
2017-01-17T12:40:40.910Z,51.11
2017-01-17T12:41:54.358Z,51.01
2017-01-17T12:43:08.276Z,51.39
2017-01-17T12:44:22.240Z,51.77
2017-01-17T12:45:35.739Z,51.77
2017-01-17T12:46:49.227Z,51.49
2017-01-17T12:48:02.667Z,51.87
2017-01-17T12:49:16.394Z,51.77
2017-01-17T12:50:29.872Z,51.77
2017-01-17T12:51:43.751Z,51.68
2017-01-17T12:52:57.230Z,51.58
2017-01-17T12:54:10.691Z,51.87
2017-01-17T12:55:26.792Z,51.87
2017-01-17T12:56:40.258Z,50.35
2017-01-17T12:57:53.723Z,49.22
2017-01-17T12:59:07.204Z,49.12
2017-01-17T13:00:20.703Z,49.12
2017-01-17T13:01:34.448Z,48.84
2017-01-17T13:02:47.938Z,48.93
2017-01-17T13:04:01.802Z,48.74
2017-01-17T13:05:15.646Z,48.08
2017-01-17T13:06:30.614Z,48.55
2017-01-17T13:07:44.361Z,48.08
2017-01-17T13:08:57.824Z,48.08
2017-01-17T13:10:11.305Z,47.7
2017-01-17T13:11:25.228Z,47.51
2017-01-17T13:12:38.699Z,47.51
2017-01-17T13:13:52.443Z,47.8
2017-01-17T13:15:05.872Z,47.61
2017-01-17T13:16:19.409Z,48.08
2017-01-17T13:17:33.243Z,48.27
2017-01-17T13:18:46.736Z,48.55
2017-01-17T13:20:00.462Z,49.03
2017-01-17T13:21:17.133Z,49.22
2017-01-17T13:22:43.305Z,50.26
2017-01-17T13:23:56.789Z,51.3
2017-01-17T13:25:10.347Z,52.81
2017-01-17T13:26:24.164Z,52.15
2017-01-17T13:27:37.680Z,52.81
2017-01-17T13:28:51.611Z,53.47
2017-01-17T13:30:05.082Z,54.23
2017-01-17T13:31:18.951Z,53.47
2017-01-17T13:32:33.935Z,52.44
2017-01-17T13:33:47.432Z,51.68
2017-01-17T13:35:00.885Z,50.92
2017-01-17T13:36:14.796Z,50.73
2017-01-17T13:37:28.338Z,50.63
2017-01-17T13:38:42.110Z,50.54
2017-01-17T13:39:55.568Z,51.01
2017-01-17T13:41:09.870Z,52.53
2017-01-17T13:42:23.377Z,53.28
2017-01-17T13:43:36.839Z,54.23
2017-01-17T13:44:50.641Z,53.38
2017-01-17T13:46:04.306Z,51.2
2017-01-17T13:47:17.823Z,50.92
2017-01-17T13:48:31.331Z,50.63
2017-01-17T13:49:44.820Z,50.82
2017-01-17T13:50:58.586Z,50.73
2017-01-17T13:52:12.294Z,51.77
2017-01-17T13:53:25.815Z,52.34
2017-01-17T13:54:39.277Z,53
2017-01-17T13:55:53.178Z,53.66
2017-01-17T13:57:07.009Z,53.66
2017-01-17T13:58:20.526Z,53.85
2017-01-17T13:59:34.409Z,53.85
2017-01-17T14:00:47.934Z,53.09
2017-01-17T14:02:01.470Z,53.19
2017-01-17T14:03:15.211Z,53.57
2017-01-17T14:04:28.762Z,53.76
2017-01-17T14:05:42.221Z,53.66
2017-01-17T14:06:55.659Z,53.47
2017-01-17T14:08:09.167Z,52.72
2017-01-17T14:09:22.999Z,51.96
2017-01-17T14:10:36.474Z,51.11
2017-01-17T14:11:52.137Z,50.35
2017-01-17T14:13:05.667Z,49.5
2017-01-17T14:14:19.718Z,49.03
2017-01-17T14:15:33.961Z,49.22
2017-01-17T14:16:47.826Z,49.31
2017-01-17T14:18:01.270Z,49.31
2017-01-17T14:19:14.750Z,48.46
2017-01-17T14:20:28.570Z,48.93
2017-01-17T14:21:42.748Z,48.93
2017-01-17T14:22:56.192Z,49.41
2017-01-17T14:24:10.092Z,49.03
2017-01-17T14:25:23.891Z,49.22
2017-01-17T14:26:37.373Z,48.27
2017-01-17T14:27:51.140Z,48.18
2017-01-17T14:29:05.011Z,48.46
2017-01-17T14:30:18.523Z,48.27
2017-01-17T14:31:31.986Z,48.27
2017-01-17T14:32:45.493Z,48.27
2017-01-17T14:33:59.210Z,48.55
2017-01-17T14:35:12.678Z,48.46
2017-01-17T14:36:26.194Z,48.55
2017-01-17T14:37:39.649Z,48.46
2017-01-17T14:38:53.079Z,48.55
2017-01-17T14:40:06.892Z,48.36
2017-01-17T14:41:20.415Z,49.22
2017-01-17T14:42:33.857Z,49.03
2017-01-17T14:43:47.323Z,48.93
2017-01-17T14:45:00.809Z,49.41
2017-01-17T14:46:14.602Z,49.5
2017-01-17T14:47:28.493Z,49.12
2017-01-17T14:48:41.944Z,49.98
2017-01-17T14:49:55.378Z,49.88
2017-01-17T14:51:08.885Z,49.5
2017-01-17T14:52:22.679Z,49.79
2017-01-17T14:53:36.181Z,49.69
2017-01-17T14:54:49.707Z,49.5
2017-01-17T14:56:03.617Z,49.79
2017-01-17T14:57:17.579Z,49.57
2017-01-17T14:58:31.341Z,49.98
2017-01-17T14:59:44.914Z,50.04
2017-01-17T15:00:58.353Z,50.61
2017-01-17T15:02:11.916Z,50.42
2017-01-17T15:03:25.438Z,50.54
2017-01-17T15:04:39.400Z,50.9
2017-01-17T15:05:53.460Z,50.9
2017-01-17T15:07:06.980Z,50.82
2017-01-17T15:08:20.491Z,50.99
2017-01-17T15:09:33.969Z,51.09
2017-01-17T15:10:47.717Z,51.37
2017-01-17T15:12:01.168Z,51.65
2017-01-17T15:13:14.710Z,51.93
2017-01-17T15:14:28.187Z,51.65
2017-01-17T15:15:41.723Z,51.93
2017-01-17T15:16:55.558Z,52.31
2017-01-17T15:18:09.053Z,52.31
2017-01-17T15:19:22.443Z,52.41
2017-01-17T15:20:35.875Z,52.5
2017-01-17T15:21:49.398Z,52.5
2017-01-17T15:23:03.171Z,52.22
2017-01-17T15:24:16.674Z,52.5
2017-01-17T15:25:30.203Z,52.79
2017-01-17T15:26:43.830Z,52.79
2017-01-17T15:27:59.525Z,53.83
2017-01-17T15:29:13.500Z,53.36
2017-01-17T15:30:26.980Z,53.55
2017-01-17T15:31:40.427Z,53.55
2017-01-17T15:32:53.863Z,53.83
2017-01-17T15:34:07.439Z,53.83
2017-01-17T15:35:21.272Z,53.92
2017-01-17T15:36:34.702Z,54.39
2017-01-17T15:37:48.145Z,54.39
2017-01-17T15:39:01.779Z,54.21
2017-01-17T15:40:15.446Z,54.21
2017-01-17T15:41:29.640Z,54.58
2017-01-17T15:42:43.153Z,54.77
2017-01-17T15:43:56.585Z,55.06
2017-01-17T15:45:10.418Z,55.15
2017-01-17T15:46:24.129Z,55.06
2017-01-17T15:47:37.911Z,55.15
2017-01-17T15:48:51.370Z,54.96
2017-01-17T15:50:05.004Z,55.15
2017-01-17T15:51:18.587Z,55.34
2017-01-17T15:52:32.979Z,55.44
2017-01-17T15:53:46.960Z,55.63
2017-01-17T15:55:02.433Z,56.29
2017-01-17T15:56:20.073Z,56.01